METAR

TAF

 




Curitiba / Bacacheri, PR - SBBI


30 de Maio de 2015 às 00:00 (UTC)


Tempo:

Céu sem restrições operacionais para aviação

Temperatura:

10ºC

Umidade Relativa:

87%

Localização:
Ajuste do Altímetro:

1017 hPa

Visibilidade Horizontal Predominante:

Igual ou acima de 10 Km

Direção e Velocidade do Vento:

260° 3,70 Km/h


Observação Meteorológica:

METAR SBBI 300000Z 26002KT CAVOK 10/08 Q1017=